Terminal Aerodrome Forecast
Issued by NWS

Home | Current Version | Previous Version | Graphics & Text | Print | Product List | Glossary On
Versions: 1 2 3 4 5 6 7 8 9 10 11 12 13 14 15 16 17 18 19
294
FTUS43 KUNR 230624 CCA
TAFGCC
TAF COR
KGCC 230624Z 2306/2406 07006KT P6SM OVC130
     FM230900 03006KT P6SM -SHRA OVC040
     FM231200 35008KT 4SM -RA OVC015
     FM232100 35015G25KT 2SM -SHRA BR OVC007
     FM240100 35013KT P6SM OVC008=

USA.gov is the U.S. government's official web portal to all federal, state and local government web resources and services.